createdAt,value
2019-04-20T00:00:53.198Z,56.58
2019-04-20T00:01:50.408Z,56.48
2019-04-20T00:02:52.265Z,56.99
2019-04-20T00:03:50.657Z,58.34
2019-04-20T00:04:49.369Z,58.65
2019-04-20T00:05:48.938Z,58.86
2019-04-20T00:06:51.336Z,59.27
2019-04-20T00:07:50.170Z,59.09
2019-04-20T00:08:55.495Z,59.19
2019-04-20T00:09:56.605Z,58.98
2019-04-20T00:10:57.009Z,58.78
2019-04-20T00:12:00.109Z,58.58
2019-04-20T00:13:03.902Z,58.91
2019-04-20T00:13:59.450Z,59.12
2019-04-20T00:14:49.954Z,58.81
2019-04-20T00:15:49.157Z,59.42
2019-04-20T00:16:48.322Z,60.03
2019-04-20T00:17:54.050Z,60.55
2019-04-20T00:18:53.955Z,60.58
2019-04-20T00:19:53.839Z,60.88
2019-04-20T00:20:51.410Z,60.99
2019-04-20T00:21:56.164Z,61.29
2019-04-20T00:22:52.021Z,61.73
2019-04-20T00:23:49.753Z,61.52
2019-04-20T00:24:51.597Z,61.83
2019-04-20T00:26:02.132Z,62.14
2019-04-20T00:28:04.435Z,62.37
2019-04-20T00:29:07.295Z,62.37
2019-04-20T00:30:05.457Z,62.88
2019-04-20T00:31:05.586Z,63.29
2019-04-20T00:31:59.180Z,63.29
2019-04-20T00:33:00.855Z,63.29
2019-04-20T00:34:01.915Z,63.29
2019-04-20T00:34:50.361Z,63.50
2019-04-20T00:35:48.452Z,63.70
2019-04-20T00:36:47.779Z,64.22
2019-04-20T00:37:48.713Z,63.91
2019-04-20T00:38:51.972Z,64.12
2019-04-20T00:39:48.899Z,64.22
2019-04-20T00:40:50.571Z,64.35
2019-04-20T00:41:55.082Z,64.25
2019-04-20T00:42:52.491Z,64.56
2019-04-20T00:43:49.198Z,64.76
2019-04-20T00:44:56.370Z,65.20
2019-04-20T00:45:56.783Z,65.10
2019-04-20T00:47:02.019Z,65.20
2019-04-20T00:47:57.276Z,65.61
2019-04-20T00:48:55.900Z,65.81
2019-04-20T00:50:00.889Z,65.74
2019-04-20T00:51:11.510Z,66.05
2019-04-20T00:52:18.758Z,65.95
2019-04-20T00:52:59.343Z,66.05
2019-04-20T00:53:52.371Z,65.74
2019-04-20T00:54:49.447Z,65.84
2019-04-20T00:55:48.551Z,65.23
2019-04-20T00:56:47.811Z,65.23
2019-04-20T00:57:54.879Z,65.23
2019-04-20T00:59:03.274Z,65.23
2019-04-20T01:00:21.663Z,65.33
2019-04-20T01:01:13.029Z,65.23
2019-04-20T01:02:04.003Z,65.44
2019-04-20T01:03:01.016Z,65.33
2019-04-20T01:04:10.611Z,65.44
2019-04-20T01:05:09.248Z,65.23
2019-04-20T01:06:15.198Z,65.44
2019-04-20T01:07:01.208Z,65.33
2019-04-20T01:07:53.522Z,64.82
2019-04-20T01:08:48.529Z,65.12
2019-04-20T01:09:47.855Z,64.41
2019-04-20T01:10:51.455Z,64.00
2019-04-20T01:11:49.794Z,64.20
2019-04-20T01:12:50.826Z,64.10
2019-04-20T01:13:52.692Z,64.20
2019-04-20T01:14:55.154Z,64.31
2019-04-20T01:15:55.412Z,64.31
2019-04-20T01:16:54.473Z,64.51
2019-04-20T01:17:48.310Z,64.61
2019-04-20T01:18:48.107Z,64.61
2019-04-20T01:19:48.891Z,64.41
2019-04-20T01:20:49.378Z,64.41
2019-04-20T01:21:54.842Z,64.41
2019-04-20T01:22:55.956Z,64.51
2019-04-20T01:23:54.581Z,64.61
2019-04-20T01:24:50.080Z,64.92
2019-04-20T01:25:55.042Z,65.23
2019-04-20T01:26:53.190Z,65.44
2019-04-20T01:28:19.316Z,65.74
2019-04-20T01:29:02.925Z,65.67
2019-04-20T01:29:53.019Z,65.67
2019-04-20T01:31:01.374Z,65.77
2019-04-20T01:32:02.310Z,65.88
2019-04-20T01:32:59.939Z,65.98
2019-04-20T01:33:58.483Z,66.19
2019-04-20T01:35:00.002Z,66.19
2019-04-20T01:36:03.451Z,66.28
2019-04-20T01:37:07.001Z,66.19
2019-04-20T01:38:08.578Z,66.08
2019-04-20T01:39:02.793Z,65.88
2019-04-20T01:39:53.370Z,65.77
2019-04-20T01:40:48.458Z,65.74
2019-04-20T01:41:47.708Z,65.95
2019-04-20T01:42:47.048Z,65.95
2019-04-20T01:43:48.097Z,66.05
2019-04-20T01:44:50.316Z,66.39
2019-04-20T01:45:52.277Z,66.39
2019-04-20T01:46:53.294Z,66.19
2019-04-20T01:47:52.773Z,66.49
2019-04-20T01:48:48.214Z,66.70
2019-04-20T01:49:54.623Z,67.00
2019-04-20T01:50:55.013Z,67.00
2019-04-20T01:51:57.749Z,66.80
2019-04-20T01:52:58.056Z,66.49
2019-04-20T01:54:03.902Z,67.00
2019-04-20T01:55:08.698Z,67.62
2019-04-20T01:56:01.136Z,67.62
2019-04-20T01:56:59.678Z,68.16
2019-04-20T01:58:08.048Z,67.86
2019-04-20T01:59:04.997Z,67.96
2019-04-20T01:59:59.381Z,67.96
2019-04-20T02:00:51.205Z,68.06
2019-04-20T02:01:55.671Z,68.06
2019-04-20T02:02:53.933Z,68.27
2019-04-20T02:03:50.823Z,68.48
2019-04-20T02:04:49.270Z,68.57
2019-04-20T02:05:54.480Z,67.96
2019-04-20T02:06:53.255Z,68.48
2019-04-20T02:07:51.976Z,68.88
2019-04-20T02:08:50.887Z,68.88
2019-04-20T02:09:53.449Z,68.99
2019-04-20T02:10:53.920Z,68.48
2019-04-20T02:11:50.787Z,68.06
2019-04-20T02:12:51.358Z,68.48
2019-04-20T02:13:53.357Z,68.78
2019-04-20T02:14:52.231Z,68.48
2019-04-20T02:15:52.371Z,68.27
2019-04-20T02:16:53.031Z,68.27
2019-04-20T02:18:03.608Z,68.27
2019-04-20T02:19:05.249Z,68.57
2019-04-20T02:20:04.512Z,68.68
2019-04-20T02:21:06.445Z,68.57
2019-04-20T02:22:04.072Z,68.37
2019-04-20T02:23:03.198Z,68.68
2019-04-20T02:23:53.080Z,68.48
2019-04-20T02:24:48.909Z,68.68
2019-04-20T02:25:46.588Z,69.12
2019-04-20T02:26:47.244Z,69.64
2019-04-20T02:27:51.741Z,69.53
2019-04-20T02:29:12.255Z,69.74
2019-04-20T02:30:14.225Z,69.84
2019-04-20T02:31:23.367Z,70.04
2019-04-20T02:33:29.899Z,70.25
2019-04-20T02:34:23.840Z,70.46
2019-04-20T02:35:16.874Z,70.66
2019-04-20T02:36:47.928Z,70.90
2019-04-20T02:38:21.769Z,71.11
2019-04-20T02:39:28.691Z,71.21
2019-04-20T02:40:16.004Z,71.62
2019-04-20T02:41:20.127Z,71.51
2019-04-20T02:42:22.674Z,71.62
2019-04-20T02:44:24.078Z,71.72
2019-04-20T02:45:27.863Z,71.72
2019-04-20T02:46:14.887Z,72.24
2019-04-20T02:47:24.633Z,72.03
2019-04-20T02:48:13.496Z,71.83
2019-04-20T02:49:33.369Z,71.83
2019-04-20T02:51:23.366Z,72.68
2019-04-20T02:52:21.116Z,72.38
2019-04-20T02:55:22.561Z,71.83
2019-04-20T02:56:23.193Z,71.93
2019-04-20T02:57:17.961Z,71.72
2019-04-20T02:58:18.729Z,71.93
2019-04-20T02:59:52.099Z,72.06
2019-04-20T03:00:12.293Z,72.27
2019-04-20T03:01:11.988Z,72.47
2019-04-20T03:02:06.229Z,72.78
2019-04-20T03:03:00.147Z,72.58
2019-04-20T03:03:53.893Z,72.47
2019-04-20T03:05:00.062Z,72.38
2019-04-20T03:06:04.630Z,71.96
2019-04-20T03:07:04.238Z,71.96
2019-04-20T03:08:08.726Z,72.27
2019-04-20T03:09:09.154Z,72.06
2019-04-20T03:10:06.435Z,72.27
2019-04-20T03:11:14.651Z,71.96
2019-04-20T03:12:08.000Z,72.27
2019-04-20T03:13:08.782Z,72.17
2019-04-20T03:14:03.983Z,71.86
2019-04-20T03:15:00.740Z,71.86
2019-04-20T03:16:03.510Z,71.96
2019-04-20T03:17:11.114Z,71.86
2019-04-20T03:18:08.809Z,72.17
2019-04-20T03:19:02.900Z,71.96
2019-04-20T03:19:58.509Z,71.75
2019-04-20T03:21:15.033Z,72.06
2019-04-20T03:22:09.704Z,72.17
2019-04-20T03:24:12.676Z,71.96
2019-04-20T03:25:06.243Z,72.17
2019-04-20T03:26:13.827Z,72.68
2019-04-20T03:26:59.591Z,72.58
2019-04-20T03:28:11.792Z,72.68
2019-04-20T03:29:01.126Z,73.09
2019-04-20T03:30:22.451Z,72.68
2019-04-20T03:31:37.075Z,72.61
2019-04-20T03:32:39.837Z,72.89
2019-04-20T03:33:23.135Z,72.78
2019-04-20T03:35:12.075Z,72.47
2019-04-20T03:36:19.921Z,72.89
2019-04-20T03:37:15.596Z,73.09
2019-04-20T03:38:09.190Z,73.09
2019-04-20T03:39:01.452Z,72.27
2019-04-20T03:40:01.375Z,72.58
2019-04-20T03:40:59.255Z,72.68
2019-04-20T03:41:51.931Z,72.06
2019-04-20T03:42:46.724Z,72.78
2019-04-20T03:43:45.769Z,72.09
2019-04-20T03:44:54.030Z,71.69
2019-04-20T03:45:54.305Z,72.61
2019-04-20T03:46:53.069Z,73.13
2019-04-20T03:47:56.104Z,73.02
2019-04-20T03:49:02.802Z,73.13
2019-04-20T03:50:06.300Z,73.13
2019-04-20T03:51:08.958Z,73.44
2019-04-20T03:52:02.514Z,73.33
2019-04-20T03:53:08.377Z,73.13
2019-04-20T03:54:02.785Z,73.44
2019-04-20T03:54:55.349Z,73.47
2019-04-20T03:56:02.239Z,73.44
2019-04-20T03:57:12.526Z,73.68
2019-04-20T03:58:10.081Z,73.78
2019-04-20T03:59:01.771Z,73.88
2019-04-20T04:00:05.769Z,73.88
2019-04-20T04:01:08.226Z,73.98
2019-04-20T04:02:22.526Z,74.70
2019-04-20T04:03:12.371Z,74.08
2019-04-20T04:04:10.483Z,74.08
2019-04-20T04:05:04.601Z,74.08
2019-04-20T04:06:00.763Z,73.26
2019-04-20T04:06:51.445Z,73.36
2019-04-20T04:07:58.299Z,73.36
2019-04-20T04:08:59.867Z,73.57
2019-04-20T04:10:06.958Z,73.57
2019-04-20T04:11:01.455Z,73.88
2019-04-20T04:12:00.022Z,73.98
2019-04-20T04:12:48.449Z,74.08
2019-04-20T04:13:46.006Z,73.88
2019-04-20T04:14:45.371Z,73.68
2019-04-20T04:15:52.008Z,73.68
2019-04-20T04:16:51.584Z,73.88
2019-04-20T04:17:47.976Z,73.78
2019-04-20T04:18:49.624Z,73.26
2019-04-20T04:19:55.792Z,73.57
2019-04-20T04:20:53.262Z,73.68
2019-04-20T04:22:01.615Z,73.68
2019-04-20T04:23:03.725Z,73.78
2019-04-20T04:24:02.228Z,73.68
2019-04-20T04:25:01.761Z,73.68
2019-04-20T04:26:07.027Z,73.47
2019-04-20T04:26:58.353Z,73.98
2019-04-20T04:28:04.850Z,73.88
2019-04-20T04:29:09.975Z,73.68
2019-04-20T04:30:04.316Z,74.19
2019-04-20T04:31:08.370Z,74.08
2019-04-20T04:32:15.489Z,73.98
2019-04-20T04:33:32.228Z,74.50
2019-04-20T04:34:04.864Z,74.50
2019-04-20T04:35:03.046Z,73.78
2019-04-20T04:36:00.547Z,73.78
2019-04-20T04:37:03.479Z,73.88
2019-04-20T04:38:06.966Z,74.40
2019-04-20T04:39:08.720Z,74.33
2019-04-20T04:40:16.513Z,74.43
2019-04-20T04:42:14.113Z,74.43
2019-04-20T04:43:05.432Z,74.22
2019-04-20T04:44:04.767Z,74.43
2019-04-20T04:44:53.635Z,74.43
2019-04-20T04:45:46.925Z,74.53
2019-04-20T04:46:53.769Z,74.33
2019-04-20T04:47:47.277Z,74.43
2019-04-20T04:48:49.117Z,74.53
2019-04-20T04:49:55.218Z,74.29
2019-04-20T04:50:52.785Z,74.19
2019-04-20T04:51:56.847Z,74.29
2019-04-20T04:52:58.728Z,74.19
2019-04-20T04:53:55.152Z,74.19
2019-04-20T04:54:53.717Z,74.08
2019-04-20T04:55:54.646Z,73.64
2019-04-20T04:56:46.287Z,73.64
2019-04-20T04:57:45.393Z,73.33
2019-04-20T04:58:44.917Z,73.13
2019-04-20T04:59:44.901Z,72.99
2019-04-20T05:00:44.884Z,72.58
2019-04-20T05:01:46.970Z,72.17
2019-04-20T05:02:50.581Z,71.93
2019-04-20T05:04:10.092Z,71.83
2019-04-20T05:05:05.604Z,71.83
2019-04-20T05:06:01.885Z,71.72
2019-04-20T05:06:59.527Z,71.62
2019-04-20T05:07:57.894Z,71.62
2019-04-20T05:08:51.503Z,71.79
2019-04-20T05:09:46.543Z,71.17
2019-04-20T05:10:45.746Z,70.76
2019-04-20T05:11:44.803Z,70.97
2019-04-20T05:12:45.971Z,70.63
2019-04-20T05:13:52.288Z,70.53
2019-04-20T05:14:54.703Z,70.12
2019-04-20T05:15:58.051Z,69.67
2019-04-20T05:17:04.244Z,68.92
2019-04-20T05:18:07.302Z,68.59
2019-04-20T05:19:12.321Z,68.45
2019-04-20T05:20:02.563Z,66.88
2019-04-20T05:21:08.743Z,66.16
2019-04-20T05:22:09.265Z,65.83
2019-04-20T05:23:03.800Z,65.18
2019-04-20T05:24:04.483Z,64.30
2019-04-20T05:25:08.484Z,63.35
2019-04-20T05:26:08.259Z,61.56
2019-04-20T05:27:08.982Z,59.94
2019-04-20T05:28:03.744Z,57.65
2019-04-20T05:28:53.201Z,56.29
2019-04-20T05:29:46.759Z,55.55
2019-04-20T05:30:48.663Z,55.30
2019-04-20T05:31:53.353Z,53.67
2019-04-20T05:32:56.125Z,51.57
2019-04-20T05:34:08.539Z,48.95
2019-04-20T05:35:12.211Z,46.86
2019-04-20T05:36:09.646Z,45.61
2019-04-20T05:37:18.127Z,44.37
2019-04-20T05:38:11.999Z,43.32
2019-04-20T05:39:19.191Z,42.58
2019-04-20T05:40:10.682Z,41.43
2019-04-20T05:41:04.491Z,40.91
2019-04-20T05:42:03.014Z,40.17
2019-04-20T05:43:09.247Z,39.34
2019-04-20T05:43:59.451Z,38.81
2019-04-20T05:45:01.768Z,38.59
2019-04-20T05:46:05.985Z,38.07
2019-04-20T05:47:05.578Z,36.76
2019-04-20T05:48:05.115Z,36.94
2019-04-20T05:49:08.952Z,36.93
2019-04-20T05:49:56.927Z,36.71
2019-04-20T05:51:01.967Z,36.40
2019-04-20T05:52:17.493Z,36.29
2019-04-20T05:53:10.054Z,36.90
2019-04-20T05:54:09.843Z,36.33
2019-04-20T05:55:06.640Z,36.81
2019-04-20T05:56:04.510Z,37.19
2019-04-20T05:57:17.457Z,37.10
2019-04-20T05:58:09.634Z,36.78
2019-04-20T05:59:05.843Z,35.14
2019-04-20T06:00:07.078Z,34.53
2019-04-20T06:01:08.430Z,35.42
2019-04-20T06:02:10.759Z,34.81
2019-04-20T06:03:09.011Z,34.00
2019-04-20T06:04:02.986Z,33.48
2019-04-20T06:05:08.462Z,33.47
2019-04-20T06:06:22.103Z,33.65
2019-04-20T06:07:11.080Z,33.95
2019-04-20T06:08:09.371Z,32.86
2019-04-20T06:09:10.898Z,32.45
2019-04-20T06:10:06.129Z,32.84
2019-04-20T06:11:09.385Z,32.03
2019-04-20T06:12:14.468Z,33.30
2019-04-20T06:13:00.232Z,31.30
2019-04-20T06:13:56.932Z,31.78
2019-04-20T06:15:00.321Z,31.67
2019-04-20T06:16:03.487Z,31.65
2019-04-20T06:17:11.360Z,31.14
2019-04-20T06:18:02.809Z,31.84
2019-04-20T06:19:14.265Z,30.93
2019-04-20T06:20:05.232Z,29.04
2019-04-20T06:21:16.521Z,30.12
2019-04-20T06:22:10.330Z,30.02
2019-04-20T06:23:17.332Z,30.32
2019-04-20T06:24:15.621Z,30.33
2019-04-20T06:25:26.209Z,30.23
2019-04-20T06:26:19.501Z,29.65
2019-04-20T06:27:04.705Z,30.74
2019-04-20T06:28:05.146Z,30.46
2019-04-20T06:29:02.909Z,30.36
2019-04-20T06:30:00.773Z,30.74
2019-04-20T06:30:55.951Z,31.35
2019-04-20T06:32:14.017Z,30.55
2019-04-20T06:33:14.923Z,30.04
2019-04-20T06:34:21.864Z,29.33
2019-04-20T06:35:15.600Z,30.40
2019-04-20T06:37:04.411Z,30.41
2019-04-20T06:38:10.721Z,30.04
2019-04-20T06:39:10.268Z,30.91
2019-04-20T06:40:23.956Z,31.11
2019-04-20T06:41:17.529Z,29.44
2019-04-20T06:42:09.851Z,30.52
2019-04-20T06:43:05.177Z,30.53
2019-04-20T06:44:12.779Z,30.81
2019-04-20T06:45:04.221Z,29.61
2019-04-20T06:46:11.583Z,29.21
2019-04-20T06:48:06.264Z,30.43
2019-04-20T06:49:15.215Z,30.71
2019-04-20T06:50:07.178Z,27.63
2019-04-20T06:51:03.306Z,26.21
2019-04-20T06:52:11.968Z,25.79
2019-04-20T06:53:13.283Z,25.28
2019-04-20T06:53:52.726Z,25.16
2019-04-20T06:55:03.363Z,24.29
2019-04-20T06:56:12.023Z,24.88
2019-04-20T06:57:07.302Z,24.28
2019-04-20T06:58:22.093Z,24.39
2019-04-20T06:59:17.500Z,25.20
2019-04-20T07:00:10.326Z,25.29
2019-04-20T07:01:06.573Z,24.68
2019-04-20T07:02:11.182Z,24.87
2019-04-20T07:03:08.007Z,25.89
2019-04-20T07:04:21.175Z,24.40
2019-04-20T07:05:05.325Z,24.90
2019-04-20T07:06:22.727Z,25.98
2019-04-20T07:07:08.538Z,24.91
2019-04-20T07:08:17.442Z,25.89
2019-04-20T07:09:06.453Z,25.20
2019-04-20T07:10:13.305Z,25.57
2019-04-20T07:11:12.593Z,25.65
2019-04-20T07:12:03.070Z,24.55
2019-04-20T07:12:59.870Z,24.64
2019-04-20T07:13:55.617Z,25.02
2019-04-20T07:14:55.466Z,24.02
2019-04-20T07:15:56.774Z,24.13
2019-04-20T07:17:10.741Z,24.23
2019-04-20T07:18:08.187Z,24.44
2019-04-20T07:19:07.912Z,24.34
2019-04-20T07:20:00.237Z,24.82
2019-04-20T07:21:05.320Z,24.13
2019-04-20T07:22:19.685Z,24.41
2019-04-20T07:23:18.959Z,23.82
2019-04-20T07:24:14.192Z,23.93
2019-04-20T07:25:21.400Z,23.94
2019-04-20T07:26:09.576Z,23.73
2019-04-20T07:27:06.629Z,24.11
2019-04-20T07:28:05.462Z,22.94
2019-04-20T07:29:07.103Z,23.24
2019-04-20T07:30:03.473Z,24.13
2019-04-20T07:31:01.738Z,23.98
2019-04-20T07:32:00.180Z,24.27
2019-04-20T07:33:06.961Z,23.46
2019-04-20T07:34:03.655Z,24.15
2019-04-20T07:35:21.892Z,25.72
2019-04-20T07:36:05.984Z,23.53
2019-04-20T07:37:28.892Z,23.31
2019-04-20T07:39:07.615Z,23.95
2019-04-20T07:40:07.453Z,25.04
2019-04-20T07:41:18.645Z,24.34
2019-04-20T07:42:08.153Z,25.42
2019-04-20T07:43:21.499Z,24.17
2019-04-20T07:44:29.858Z,25.60
2019-04-20T07:45:07.443Z,25.08
2019-04-20T07:46:13.156Z,24.06
2019-04-20T07:47:14.270Z,23.53
2019-04-20T07:48:13.689Z,23.82
2019-04-20T07:49:07.347Z,24.16
2019-04-20T07:50:03.707Z,24.15
2019-04-20T07:50:55.467Z,23.16
2019-04-20T07:51:47.453Z,22.86
2019-04-20T07:52:54.004Z,22.67
2019-04-20T07:54:14.804Z,22.75
2019-04-20T07:55:26.053Z,22.74
2019-04-20T07:56:05.670Z,23.61
2019-04-20T07:57:06.842Z,21.83
2019-04-20T07:57:58.010Z,21.64
2019-04-20T07:58:52.751Z,21.65
2019-04-20T08:00:08.112Z,22.45
2019-04-20T08:01:07.600Z,22.93
2019-04-20T08:02:08.007Z,22.33
2019-04-20T08:03:12.443Z,22.62
2019-04-20T08:04:08.075Z,21.84
2019-04-20T08:05:01.668Z,21.94
2019-04-20T08:05:55.186Z,22.23
2019-04-20T08:06:51.977Z,22.82
2019-04-20T08:07:53.891Z,21.73
2019-04-20T08:08:59.293Z,21.92
2019-04-20T08:09:51.297Z,22.84
2019-04-20T08:11:05.916Z,23.43
2019-04-20T08:12:11.757Z,24.06
2019-04-20T08:13:09.535Z,23.26
2019-04-20T08:14:07.340Z,23.05
2019-04-20T08:15:14.813Z,22.99
2019-04-20T08:16:11.585Z,24.29
2019-04-20T08:17:14.089Z,24.08
2019-04-20T08:18:22.381Z,23.97
2019-04-20T08:19:07.874Z,24.07
2019-04-20T08:19:58.067Z,24.18
2019-04-20T08:21:06.727Z,24.28
2019-04-20T08:22:09.508Z,24.54
2019-04-20T08:23:09.776Z,23.14
2019-04-20T08:24:02.897Z,22.53
2019-04-20T08:24:55.441Z,22.62
2019-04-20T08:25:53.223Z,22.83
2019-04-20T08:26:50.268Z,22.62
2019-04-20T08:27:44.505Z,22.71
2019-04-20T08:28:52.891Z,22.31
2019-04-20T08:29:58.169Z,22.93
2019-04-20T08:31:00.662Z,23.42
2019-04-20T08:32:04.828Z,24.05
2019-04-20T08:33:00.402Z,23.24
2019-04-20T08:34:13.584Z,24.04
2019-04-20T08:35:04.925Z,23.73
2019-04-20T08:36:09.164Z,22.66
2019-04-20T08:37:01.380Z,24.07
2019-04-20T08:38:25.852Z,24.05
2019-04-20T08:39:24.153Z,23.33
2019-04-20T08:40:07.481Z,23.74
2019-04-20T08:41:03.221Z,24.15
2019-04-20T08:42:07.544Z,23.05
2019-04-20T08:43:12.889Z,23.52
2019-04-20T08:44:11.435Z,22.22
2019-04-20T08:45:07.132Z,21.83
2019-04-20T08:46:05.283Z,23.10
2019-04-20T08:47:15.892Z,22.38
2019-04-20T08:48:02.778Z,22.22
2019-04-20T08:49:06.898Z,22.10
2019-04-20T08:50:11.605Z,21.98
2019-04-20T08:51:04.793Z,21.28
2019-04-20T08:52:21.254Z,20.69
2019-04-20T08:54:02.331Z,21.49
2019-04-20T08:55:04.987Z,21.70
2019-04-20T08:55:56.758Z,21.80
2019-04-20T08:56:51.119Z,22.11
2019-04-20T08:57:44.453Z,23.03
2019-04-20T08:58:43.452Z,23.62
2019-04-20T08:59:44.381Z,22.71
2019-04-20T09:00:50.115Z,22.69
2019-04-20T09:01:44.626Z,22.70
2019-04-20T09:02:51.939Z,22.30
2019-04-20T09:03:54.933Z,22.88
2019-04-20T09:04:52.965Z,23.80
2019-04-20T09:05:52.541Z,22.94
2019-04-20T09:06:58.527Z,23.41
2019-04-20T09:07:53.530Z,22.30
2019-04-20T09:08:55.496Z,22.47
2019-04-20T09:10:11.151Z,21.56
2019-04-20T09:11:01.736Z,21.56
2019-04-20T09:12:03.263Z,20.88
2019-04-20T09:12:57.264Z,21.47
2019-04-20T09:13:49.658Z,20.31
2019-04-20T09:14:44.526Z,20.73
2019-04-20T09:15:42.621Z,21.84
2019-04-20T09:16:50.775Z,22.64
2019-04-20T09:17:50.353Z,23.03
2019-04-20T09:18:54.670Z,23.40
2019-04-20T09:19:52.815Z,22.00
2019-04-20T09:20:52.675Z,20.89
2019-04-20T09:21:51.051Z,20.37
2019-04-20T09:22:57.694Z,19.49
2019-04-20T09:23:59.731Z,20.09
2019-04-20T09:25:15.589Z,20.62
2019-04-20T09:27:01.115Z,20.40
2019-04-20T09:27:50.747Z,19.80
2019-04-20T09:28:56.796Z,20.12
2019-04-20T09:30:02.043Z,20.31
2019-04-20T09:30:53.408Z,20.49
2019-04-20T09:32:05.851Z,19.60
2019-04-20T09:33:08.069Z,19.30
2019-04-20T09:34:03.004Z,19.69
2019-04-20T09:35:04.572Z,18.71
2019-04-20T09:35:57.895Z,18.62
2019-04-20T09:36:56.462Z,19.43
2019-04-20T09:38:03.163Z,19.44
2019-04-20T09:38:56.556Z,19.13
2019-04-20T09:40:02.363Z,19.32
2019-04-20T09:40:57.176Z,18.82
2019-04-20T09:41:59.769Z,18.72
2019-04-20T09:42:43.227Z,19.51
2019-04-20T09:43:43.217Z,18.91
2019-04-20T09:44:47.772Z,18.92
2019-04-20T09:45:48.029Z,19.32
2019-04-20T09:46:49.211Z,18.92
2019-04-20T09:47:46.832Z,19.91
2019-04-20T09:48:51.188Z,19.71
2019-04-20T09:49:54.865Z,19.12
2019-04-20T09:51:07.891Z,19.23
2019-04-20T09:51:59.275Z,19.44
2019-04-20T09:53:01.493Z,19.54
2019-04-20T09:53:55.868Z,20.33
2019-04-20T09:54:59.384Z,20.22
2019-04-20T09:56:01.908Z,20.20
2019-04-20T09:57:07.615Z,20.21
2019-04-20T09:57:57.581Z,19.74
2019-04-20T09:59:01.100Z,20.34
2019-04-20T10:00:04.235Z,20.91
2019-04-20T10:00:57.984Z,20.82
2019-04-20T10:01:47.220Z,20.44
2019-04-20T10:02:44.559Z,20.03
2019-04-20T10:03:42.924Z,20.62
2019-04-20T10:04:42.008Z,19.84
2019-04-20T10:05:43.277Z,19.65
2019-04-20T10:06:43.480Z,20.33
2019-04-20T10:07:42.591Z,20.42
2019-04-20T10:08:49.227Z,19.23
2019-04-20T10:09:45.112Z,19.51
2019-04-20T10:10:43.813Z,19.70
2019-04-20T10:11:44.243Z,20.10
2019-04-20T10:12:41.970Z,20.01
2019-04-20T10:13:41.936Z,20.12
2019-04-20T10:14:42.718Z,19.92
2019-04-20T10:15:41.946Z,19.22
2019-04-20T10:16:42.030Z,18.92
2019-04-20T10:17:41.895Z,19.73
2019-04-20T10:18:47.170Z,19.95
2019-04-20T10:19:44.708Z,20.72
2019-04-20T10:20:43.522Z,19.74
2019-04-20T10:21:41.892Z,19.94
2019-04-20T10:22:42.550Z,19.43
2019-04-20T10:23:42.837Z,19.73
2019-04-20T10:24:42.359Z,20.91
2019-04-20T10:25:42.602Z,19.42
2019-04-20T10:26:42.743Z,19.21
2019-04-20T10:27:42.394Z,19.64
2019-04-20T10:28:41.790Z,20.54
2019-04-20T10:29:41.769Z,20.24
2019-04-20T10:30:41.793Z,20.31
2019-04-20T10:31:48.296Z,19.71
2019-04-20T10:32:45.687Z,18.82
2019-04-20T10:33:43.754Z,19.51
2019-04-20T10:34:41.741Z,19.93
2019-04-20T10:35:41.752Z,20.54
2019-04-20T10:36:41.834Z,20.14
2019-04-20T10:37:41.914Z,19.74
2019-04-20T10:38:42.374Z,19.73
2019-04-20T10:39:42.612Z,20.12
2019-04-20T10:40:52.959Z,19.83
2019-04-20T10:41:49.104Z,20.61
2019-04-20T10:42:43.915Z,19.92
2019-04-20T10:43:42.801Z,19.71
2019-04-20T10:44:42.943Z,19.80
2019-04-20T10:45:41.668Z,18.62
2019-04-20T10:46:42.816Z,19.22
2019-04-20T10:47:41.603Z,19.31
2019-04-20T10:48:47.606Z,18.91
2019-04-20T10:49:42.938Z,20.10
2019-04-20T10:50:43.016Z,19.42
2019-04-20T10:51:41.834Z,18.80
2019-04-20T10:52:41.655Z,19.49
2019-04-20T10:53:42.363Z,17.65
2019-04-20T10:54:42.688Z,17.93
2019-04-20T10:55:41.526Z,18.02
2019-04-20T10:56:41.547Z,18.04
2019-04-20T10:57:41.765Z,17.85
2019-04-20T10:58:41.515Z,18.35
2019-04-20T10:59:41.548Z,18.96
2019-04-20T11:00:41.925Z,18.95
2019-04-20T11:01:41.505Z,19.04
2019-04-20T11:02:45.504Z,17.56
2019-04-20T11:03:42.640Z,17.67
2019-04-20T11:04:41.443Z,17.96
2019-04-20T11:05:42.586Z,18.74
2019-04-20T11:06:42.688Z,18.63
2019-04-20T11:07:41.434Z,18.35
2019-04-20T11:08:42.542Z,18.63
2019-04-20T11:09:42.635Z,18.55
2019-04-20T11:10:55.731Z,18.35
2019-04-20T11:11:42.406Z,17.65
2019-04-20T11:12:42.209Z,16.96
2019-04-20T11:13:41.513Z,16.27
2019-04-20T11:14:44.370Z,17.14
2019-04-20T11:15:42.238Z,15.76
2019-04-20T11:16:42.440Z,15.40
2019-04-20T11:17:41.750Z,16.30
2019-04-20T11:18:41.315Z,16.22
2019-04-20T11:19:41.367Z,16.61
2019-04-20T11:20:41.520Z,17.09
2019-04-20T11:21:41.315Z,16.30
2019-04-20T11:22:42.211Z,16.40
2019-04-20T11:23:42.335Z,16.22
2019-04-20T11:24:41.267Z,16.51
2019-04-20T11:25:42.127Z,16.68
2019-04-20T11:26:43.142Z,17.07
2019-04-20T11:27:41.210Z,17.11
2019-04-20T11:28:42.039Z,17.60
2019-04-20T11:29:42.238Z,17.42
2019-04-20T11:30:41.201Z,17.42
2019-04-20T11:31:46.783Z,17.81
2019-04-20T11:32:42.244Z,18.30
2019-04-20T11:33:42.429Z,18.30
2019-04-20T11:34:42.453Z,18.40
2019-04-20T11:35:43.252Z,18.21
2019-04-20T11:36:41.215Z,19.38
2019-04-20T11:37:41.114Z,18.71
2019-04-20T11:38:41.107Z,18.70
2019-04-20T11:39:41.152Z,18.40
2019-04-20T11:40:42.196Z,18.00
2019-04-20T11:41:41.476Z,18.77
2019-04-20T11:42:41.655Z,17.69
2019-04-20T11:43:41.964Z,17.69
2019-04-20T11:44:42.173Z,18.87
2019-04-20T11:45:41.042Z,19.37
2019-04-20T11:46:41.040Z,18.67
2019-04-20T11:47:41.040Z,18.07
2019-04-20T11:48:41.414Z,18.19
2019-04-20T11:49:41.642Z,18.59
2019-04-20T11:50:41.041Z,18.69
2019-04-20T11:51:41.418Z,18.71
2019-04-20T11:52:45.938Z,19.01
2019-04-20T11:53:42.709Z,19.69
2019-04-20T11:54:42.122Z,19.30
2019-04-20T11:55:40.913Z,19.90
2019-04-20T11:56:45.245Z,20.52
2019-04-20T11:57:43.148Z,20.53
2019-04-20T11:58:40.915Z,21.13
2019-04-20T11:59:41.212Z,21.53
2019-04-20T12:00:52.253Z,21.04
2019-04-20T12:01:49.355Z,21.24
2019-04-20T12:02:44.307Z,21.44
2019-04-20T12:03:51.923Z,21.47
2019-04-20T12:04:49.216Z,21.56
2019-04-20T12:05:46.621Z,20.76
2019-04-20T12:06:43.061Z,20.86
2019-04-20T12:07:40.848Z,20.76
2019-04-20T12:08:42.714Z,21.36
2019-04-20T12:09:41.828Z,21.37
2019-04-20T12:10:43.601Z,22.07
2019-04-20T12:11:56.433Z,22.37
2019-04-20T12:12:46.719Z,22.67
2019-04-20T12:13:42.713Z,22.70
2019-04-20T12:14:40.980Z,23.01
2019-04-20T12:15:41.362Z,22.72
2019-04-20T12:16:41.685Z,23.52
2019-04-20T12:17:41.756Z,23.41
2019-04-20T12:18:41.905Z,23.13
2019-04-20T12:19:41.766Z,23.83
2019-04-20T12:20:40.909Z,24.23
2019-04-20T12:21:40.898Z,23.83
2019-04-20T12:22:42.045Z,23.82
2019-04-20T12:23:40.647Z,23.43
2019-04-20T12:24:40.653Z,23.64
2019-04-20T12:25:41.431Z,24.34
2019-04-20T12:26:40.665Z,24.34
2019-04-20T12:27:47.486Z,24.83
2019-04-20T12:28:41.591Z,24.43
2019-04-20T12:29:40.594Z,24.22
2019-04-20T12:30:41.807Z,23.74
2019-04-20T12:31:44.341Z,24.73
2019-04-20T12:32:45.381Z,24.42
2019-04-20T12:33:42.233Z,24.04
2019-04-20T12:34:41.297Z,24.23
2019-04-20T12:35:40.509Z,24.64
2019-04-20T12:36:40.526Z,24.74
2019-04-20T12:37:40.975Z,24.64
2019-04-20T12:38:41.329Z,24.74
2019-04-20T12:39:40.459Z,24.83
2019-04-20T12:40:40.459Z,25.04
2019-04-20T12:41:48.061Z,24.84
2019-04-20T12:42:41.467Z,24.44
2019-04-20T12:43:41.496Z,24.13
2019-04-20T12:44:41.685Z,24.23
2019-04-20T12:45:40.415Z,24.02
2019-04-20T12:46:41.510Z,23.13
2019-04-20T12:47:41.500Z,23.03
2019-04-20T12:48:41.790Z,22.83
2019-04-20T12:49:41.382Z,23.43
2019-04-20T12:50:41.521Z,23.72
2019-04-20T12:51:48.798Z,23.54
2019-04-20T12:52:41.346Z,23.93
2019-04-20T12:53:40.575Z,23.74
2019-04-20T12:54:42.826Z,23.24
2019-04-20T12:55:40.902Z,23.55
2019-04-20T12:56:40.503Z,23.85
2019-04-20T12:57:40.648Z,24.15
2019-04-20T12:58:43.316Z,24.34
2019-04-20T12:59:42.730Z,24.84
2019-04-20T13:00:41.671Z,24.33
2019-04-20T13:01:41.448Z,23.34
2019-04-20T13:02:41.125Z,24.23
2019-04-20T13:03:41.453Z,23.93
2019-04-20T13:04:41.454Z,24.04
2019-04-20T13:05:40.262Z,24.04
2019-04-20T13:06:40.874Z,24.04
2019-04-20T13:07:44.872Z,24.54